createdAt,value
2022-11-12T00:00:59.074Z,5.90
2022-11-12T00:02:19.502Z,5.90
2022-11-12T00:03:40.169Z,5.90
2022-11-12T00:05:00.810Z,6.00
2022-11-12T00:06:20.558Z,5.90
2022-11-12T00:07:40.336Z,5.90
2022-11-12T00:09:00.446Z,5.90
2022-11-12T00:10:20.402Z,5.90
2022-11-12T00:11:40.336Z,5.90
2022-11-12T00:13:00.483Z,5.90
2022-11-12T00:14:20.356Z,5.90
2022-11-12T00:15:40.735Z,5.90
2022-11-12T00:17:00.643Z,5.90
2022-11-12T00:18:20.666Z,5.90
2022-11-12T00:19:40.608Z,5.90
2022-11-12T00:21:00.592Z,5.80
2022-11-12T00:22:21.636Z,5.80
2022-11-12T00:23:41.784Z,5.80
2022-11-12T00:25:02.009Z,5.80
2022-11-12T00:26:22.110Z,5.80
2022-11-12T00:27:42.012Z,5.80
2022-11-12T00:29:02.047Z,5.80
2022-11-12T00:30:22.230Z,5.80
2022-11-12T00:31:42.320Z,5.80
2022-11-12T00:33:03.706Z,5.70
2022-11-12T00:34:23.989Z,5.80
2022-11-12T00:35:43.811Z,5.70
2022-11-12T00:37:05.333Z,5.70
2022-11-12T00:38:25.763Z,5.70
2022-11-12T00:39:46.807Z,5.70
2022-11-12T00:41:07.006Z,5.70
2022-11-12T00:42:27.169Z,5.80
2022-11-12T00:43:47.010Z,5.70
2022-11-12T00:45:07.337Z,5.70
2022-11-12T00:46:27.218Z,5.80
2022-11-12T00:47:47.471Z,5.70
2022-11-12T00:49:08.265Z,5.70
2022-11-12T00:50:28.708Z,5.70
2022-11-12T00:51:49.509Z,5.80
2022-11-12T00:53:10.673Z,5.80
2022-11-12T00:54:30.871Z,5.70
2022-11-12T00:55:50.720Z,5.70
2022-11-12T00:57:11.290Z,5.70
2022-11-12T00:58:32.833Z,5.60
2022-11-12T00:59:52.996Z,5.60
2022-11-12T01:01:16.869Z,5.60
2022-11-12T01:02:43.239Z,5.60
2022-11-12T01:04:06.256Z,5.60
2022-11-12T01:05:26.282Z,5.60
2022-11-12T01:06:46.189Z,5.60
2022-11-12T01:08:06.037Z,5.60
2022-11-12T01:09:26.706Z,5.60
2022-11-12T01:10:46.592Z,5.60
2022-11-12T01:12:06.601Z,5.70
2022-11-12T01:13:26.251Z,5.60
2022-11-12T01:14:46.736Z,5.60
2022-11-12T01:16:09.311Z,5.50
2022-11-12T01:17:29.411Z,5.60
2022-11-12T01:18:57.543Z,5.60
2022-11-12T01:20:17.500Z,5.60
2022-11-12T01:21:40.900Z,5.60
2022-11-12T01:23:00.963Z,5.50
2022-11-12T01:24:20.788Z,5.50
2022-11-12T01:25:40.725Z,5.50
2022-11-12T01:27:00.555Z,5.50
2022-11-12T01:28:20.896Z,5.50
2022-11-12T01:29:41.192Z,5.40
2022-11-12T01:31:32.200Z,5.40
2022-11-12T01:32:52.372Z,5.40
2022-11-12T01:34:12.552Z,5.50
2022-11-12T01:35:32.464Z,5.60
2022-11-12T01:36:52.520Z,5.50
2022-11-12T01:38:12.353Z,5.60
2022-11-12T01:39:32.260Z,5.60
2022-11-12T01:40:52.276Z,5.60
2022-11-12T01:42:12.404Z,5.50
2022-11-12T01:43:32.718Z,5.50
2022-11-12T01:44:53.664Z,5.50
2022-11-12T01:46:21.020Z,5.50
2022-11-12T01:47:41.206Z,5.40
2022-11-12T01:49:08.841Z,5.50
2022-11-12T01:50:33.859Z,5.50
2022-11-12T01:51:57.058Z,5.50
2022-11-12T01:53:20.028Z,5.50
2022-11-12T01:54:40.934Z,5.60
2022-11-12T01:56:04.220Z,5.50
2022-11-12T01:57:37.022Z,5.50
2022-11-12T01:59:10.799Z,5.60
2022-11-12T02:00:31.401Z,5.60
2022-11-12T02:01:51.371Z,5.50
2022-11-12T02:03:16.627Z,5.50
2022-11-12T02:04:39.734Z,5.30
2022-11-12T02:06:04.925Z,5.10
2022-11-12T02:07:26.434Z,4.90
2022-11-12T02:08:46.716Z,4.80
2022-11-12T02:10:08.974Z,4.70
2022-11-12T02:11:28.954Z,4.80
2022-11-12T02:13:10.067Z,4.70
2022-11-12T02:14:30.948Z,4.70
2022-11-12T02:15:50.990Z,4.70
2022-11-12T02:17:11.322Z,4.80
2022-11-12T02:18:31.472Z,4.80
2022-11-12T02:19:53.139Z,4.80
2022-11-12T02:21:12.925Z,4.80
2022-11-12T02:22:32.768Z,4.80
2022-11-12T02:24:04.618Z,4.80
2022-11-12T02:25:26.856Z,4.80
2022-11-12T02:26:51.359Z,4.90
2022-11-12T02:28:11.224Z,4.90
2022-11-12T02:29:31.641Z,5.00
2022-11-12T02:30:51.690Z,4.90
2022-11-12T02:32:12.505Z,4.80
2022-11-12T02:33:32.383Z,4.80
2022-11-12T02:34:52.194Z,4.80
2022-11-12T02:36:12.072Z,4.90
2022-11-12T02:37:32.691Z,4.90
2022-11-12T02:38:52.862Z,4.90
2022-11-12T02:40:13.190Z,5.00
2022-11-12T02:41:33.453Z,5.00
2022-11-12T02:42:53.309Z,4.90
2022-11-12T02:44:13.273Z,4.80
2022-11-12T02:45:33.324Z,4.80
2022-11-12T02:46:53.224Z,4.80
2022-11-12T02:48:18.950Z,4.80
2022-11-12T02:49:39.408Z,4.80
2022-11-12T02:50:59.953Z,4.80
2022-11-12T02:52:19.839Z,4.80
2022-11-12T02:53:40.377Z,4.90
2022-11-12T02:55:00.815Z,4.80
2022-11-12T02:56:21.086Z,4.80
2022-11-12T02:57:41.496Z,4.80
2022-11-12T02:59:01.838Z,4.80
2022-11-12T03:00:21.978Z,4.70
2022-11-12T03:01:41.834Z,4.70
2022-11-12T03:03:02.758Z,4.60
2022-11-12T03:04:23.085Z,4.70
2022-11-12T03:05:44.596Z,4.60
2022-11-12T03:07:04.824Z,4.60
2022-11-12T03:08:26.109Z,4.70
2022-11-12T03:12:46.198Z,4.50
2022-11-12T03:14:06.442Z,4.60
2022-11-12T03:15:28.623Z,4.60
2022-11-12T03:16:48.962Z,4.60
2022-11-12T03:18:09.479Z,4.60
2022-11-12T03:19:29.605Z,4.50
2022-11-12T03:20:51.921Z,4.50
2022-11-12T03:22:11.961Z,4.40
2022-11-12T03:23:32.194Z,4.40
2022-11-12T03:24:52.266Z,4.40
2022-11-12T03:26:12.399Z,4.40
2022-11-12T03:27:32.531Z,4.40
2022-11-12T03:28:52.658Z,4.40
2022-11-12T03:30:12.866Z,4.40
2022-11-12T03:31:35.565Z,4.40
2022-11-12T03:32:56.047Z,4.50
2022-11-12T03:34:15.815Z,4.60
2022-11-12T03:35:36.489Z,4.60
2022-11-12T03:36:56.583Z,4.60
2022-11-12T03:38:16.503Z,4.60
2022-11-12T03:39:36.981Z,4.40
2022-11-12T03:40:56.908Z,4.40
2022-11-12T03:42:16.673Z,4.40
2022-11-12T03:43:36.800Z,4.30
2022-11-12T03:44:56.686Z,4.30
2022-11-12T03:46:16.754Z,4.30
2022-11-12T03:47:36.563Z,4.30
2022-11-12T03:48:57.312Z,4.40
2022-11-12T03:50:19.929Z,4.50
2022-11-12T03:51:40.331Z,4.50
2022-11-12T03:53:00.392Z,4.50
2022-11-12T03:54:20.690Z,4.40
2022-11-12T03:55:40.694Z,4.40
2022-11-12T03:57:00.951Z,4.40
2022-11-12T03:58:21.095Z,4.40
2022-11-12T03:59:42.940Z,4.40
2022-11-12T04:01:02.908Z,4.30
2022-11-12T04:02:25.488Z,4.30
2022-11-12T04:03:45.531Z,4.30
2022-11-12T04:05:25.773Z,4.40
2022-11-12T04:07:04.827Z,4.40
2022-11-12T04:08:37.295Z,4.40
2022-11-12T04:09:57.479Z,4.40
2022-11-12T04:11:18.119Z,4.40
2022-11-12T04:12:56.828Z,4.40
2022-11-12T04:14:17.444Z,4.40
2022-11-12T04:15:37.331Z,4.40
2022-11-12T04:17:16.046Z,4.40
2022-11-12T04:18:55.060Z,4.30
2022-11-12T04:20:34.049Z,4.40
2022-11-12T04:22:01.360Z,4.30
2022-11-12T04:23:21.686Z,4.20
2022-11-12T04:25:01.571Z,4.10
2022-11-12T04:26:24.434Z,4.10
2022-11-12T04:27:44.334Z,4.10
2022-11-12T04:29:23.640Z,4.10
2022-11-12T04:30:43.691Z,4.10
2022-11-12T04:32:03.611Z,4.20
2022-11-12T04:33:23.808Z,4.20
2022-11-12T04:34:44.008Z,4.20
2022-11-12T04:36:04.170Z,4.10
2022-11-12T04:37:27.045Z,4.10
2022-11-12T04:38:47.131Z,4.10
2022-11-12T04:40:27.969Z,4.00
2022-11-12T04:42:07.050Z,4.00
2022-11-12T04:43:45.992Z,3.90
2022-11-12T04:45:09.227Z,3.90
2022-11-12T04:46:29.574Z,3.90
2022-11-12T04:47:49.444Z,3.90
2022-11-12T04:49:09.302Z,3.90
2022-11-12T04:50:29.223Z,3.90
2022-11-12T04:52:05.142Z,3.90
2022-11-12T04:53:27.114Z,3.80
2022-11-12T04:54:46.910Z,3.80
2022-11-12T04:56:07.183Z,3.80
2022-11-12T04:57:27.419Z,3.90
2022-11-12T04:58:47.882Z,3.90
2022-11-12T05:00:08.405Z,4.00
2022-11-12T05:01:28.492Z,4.10
2022-11-12T05:02:50.214Z,4.10
2022-11-12T05:04:10.351Z,4.10
2022-11-12T05:05:33.857Z,4.20
2022-11-12T05:06:55.974Z,4.10
2022-11-12T05:08:16.334Z,4.00
2022-11-12T05:09:37.779Z,4.00
2022-11-12T05:10:58.098Z,3.90
2022-11-12T05:12:18.605Z,3.80
2022-11-12T05:13:38.420Z,3.80
2022-11-12T05:14:59.150Z,3.80
2022-11-12T05:16:19.058Z,3.80
2022-11-12T05:17:44.825Z,3.80
2022-11-12T05:19:05.811Z,3.90
2022-11-12T05:20:26.334Z,4.00
2022-11-12T05:22:05.161Z,4.00
2022-11-12T05:23:25.210Z,4.10
2022-11-12T05:24:45.306Z,4.10
2022-11-12T05:26:05.660Z,4.10
2022-11-12T05:27:25.743Z,4.00
2022-11-12T05:28:45.672Z,4.00
2022-11-12T05:30:05.953Z,4.00
2022-11-12T05:31:25.894Z,4.00
2022-11-12T05:32:46.037Z,3.90
2022-11-12T05:34:06.145Z,3.90
2022-11-12T05:35:26.075Z,4.00
2022-11-12T05:36:46.149Z,4.00
2022-11-12T05:38:06.279Z,4.00
2022-11-12T05:39:26.276Z,4.10
2022-11-12T05:40:46.765Z,4.10
2022-11-12T05:42:15.036Z,3.90
2022-11-12T05:43:35.592Z,3.80
2022-11-12T05:44:55.510Z,3.70
2022-11-12T05:46:15.456Z,3.70
2022-11-12T05:47:35.478Z,3.60
2022-11-12T05:48:55.357Z,3.60
2022-11-12T05:50:15.285Z,3.50
2022-11-12T05:51:35.236Z,3.50
2022-11-12T05:52:55.499Z,3.50
2022-11-12T05:54:15.377Z,3.50
2022-11-12T05:55:37.191Z,3.60
2022-11-12T05:56:57.548Z,3.50
2022-11-12T05:58:17.495Z,3.60
2022-11-12T05:59:37.412Z,3.60
2022-11-12T06:00:57.922Z,3.60
2022-11-12T06:02:19.567Z,3.70
2022-11-12T06:03:40.113Z,3.80
2022-11-12T06:05:00.468Z,3.80
2022-11-12T06:06:20.429Z,3.90
2022-11-12T06:07:40.752Z,3.90
2022-11-12T06:09:01.267Z,3.80
2022-11-12T06:10:21.865Z,3.90
2022-11-12T06:11:44.049Z,3.80
2022-11-12T06:13:04.896Z,3.90
2022-11-12T06:14:24.823Z,4.00
2022-11-12T06:15:44.794Z,3.90
2022-11-12T06:17:05.093Z,3.80
2022-11-12T06:18:25.865Z,3.80
2022-11-12T06:19:46.980Z,3.80
2022-11-12T06:21:22.952Z,3.80
2022-11-12T06:22:43.334Z,3.80
2022-11-12T06:24:03.340Z,3.90
2022-11-12T06:25:38.915Z,3.90
2022-11-12T06:26:59.678Z,3.90
2022-11-12T06:28:19.537Z,4.00
2022-11-12T06:29:39.692Z,3.80
2022-11-12T06:30:59.917Z,3.80
2022-11-12T06:32:20.065Z,3.80
2022-11-12T06:34:07.726Z,3.90
2022-11-12T06:35:28.110Z,3.90
2022-11-12T06:36:48.798Z,3.90
2022-11-12T06:38:08.869Z,3.80
2022-11-12T06:39:29.667Z,3.80
2022-11-12T06:40:54.469Z,3.90
2022-11-12T06:42:15.419Z,3.80
2022-11-12T06:43:35.406Z,3.80
2022-11-12T06:44:55.470Z,3.80
2022-11-12T06:46:17.093Z,3.70
2022-11-12T06:47:37.184Z,3.70
2022-11-12T06:48:57.333Z,3.80
2022-11-12T06:50:17.334Z,3.80
2022-11-12T06:51:37.188Z,3.90
2022-11-12T06:53:00.001Z,3.90
2022-11-12T06:54:19.994Z,4.00
2022-11-12T06:55:40.087Z,4.00
2022-11-12T06:57:00.089Z,4.00
2022-11-12T06:58:19.855Z,4.10
2022-11-12T06:59:39.856Z,4.10
2022-11-12T07:01:10.982Z,4.10
2022-11-12T07:02:31.942Z,4.20
2022-11-12T07:03:53.425Z,4.10
2022-11-12T07:05:13.314Z,4.00
2022-11-12T07:06:34.380Z,4.10
2022-11-12T07:07:54.728Z,4.20
2022-11-12T07:09:14.886Z,4.20
2022-11-12T07:10:34.711Z,4.10
2022-11-12T07:11:54.564Z,4.10
2022-11-12T07:13:14.520Z,4.10
2022-11-12T07:14:34.357Z,4.10
2022-11-12T07:15:57.851Z,4.10
2022-11-12T07:17:17.939Z,4.10
2022-11-12T07:18:38.467Z,4.10
2022-11-12T07:20:03.429Z,4.10
2022-11-12T07:21:24.077Z,4.00
2022-11-12T07:22:44.931Z,3.90
2022-11-12T07:24:05.216Z,3.90
2022-11-12T07:25:25.353Z,3.90
2022-11-12T07:26:47.597Z,3.90
2022-11-12T07:28:07.905Z,3.80
2022-11-12T07:29:46.394Z,3.60
2022-11-12T07:31:10.479Z,3.50
2022-11-12T07:32:30.615Z,3.50
2022-11-12T07:33:51.009Z,3.50
2022-11-12T07:35:11.691Z,3.50
2022-11-12T07:36:31.898Z,3.40
2022-11-12T07:37:52.903Z,3.40
2022-11-12T07:39:16.194Z,3.40
2022-11-12T07:40:36.103Z,3.30
2022-11-12T07:41:56.057Z,3.40
2022-11-12T07:43:15.852Z,3.40
2022-11-12T07:44:35.931Z,3.40
2022-11-12T07:46:09.018Z,3.50
2022-11-12T07:47:31.021Z,3.50
2022-11-12T07:48:51.743Z,3.70
2022-11-12T07:50:11.788Z,3.80
2022-11-12T07:51:31.741Z,3.90
2022-11-12T07:52:51.892Z,4.00
2022-11-12T07:54:13.178Z,4.10
2022-11-12T07:55:33.274Z,4.20
2022-11-12T07:56:53.336Z,4.20
2022-11-12T07:58:13.168Z,4.10
2022-11-12T07:59:33.988Z,4.10
2022-11-12T08:00:54.972Z,4.10
2022-11-12T08:02:14.739Z,4.20
2022-11-12T08:03:35.016Z,4.30
2022-11-12T08:04:54.821Z,4.20
2022-11-12T08:06:14.899Z,4.30
2022-11-12T08:07:35.418Z,4.30
2022-11-12T08:08:57.277Z,4.30
2022-11-12T08:10:17.491Z,4.30
2022-11-12T08:11:37.335Z,4.40
2022-11-12T08:12:57.577Z,4.50
2022-11-12T08:14:17.768Z,4.50
2022-11-12T08:15:37.866Z,4.60
2022-11-12T08:16:58.020Z,4.60
2022-11-12T08:18:18.546Z,4.60
2022-11-12T08:19:38.598Z,4.50
2022-11-12T08:21:02.618Z,4.60
2022-11-12T08:22:23.054Z,4.60
2022-11-12T08:23:43.170Z,4.50
2022-11-12T08:25:03.286Z,4.60
2022-11-12T08:26:23.730Z,4.70
2022-11-12T08:27:43.649Z,4.80
2022-11-12T08:29:08.355Z,5.00
2022-11-12T08:30:29.833Z,5.10
2022-11-12T08:31:49.936Z,5.10
2022-11-12T08:33:09.861Z,5.20
2022-11-12T08:34:30.331Z,5.20
2022-11-12T08:35:50.339Z,5.40
2022-11-12T08:37:10.389Z,5.40
2022-11-12T08:38:30.526Z,5.50
2022-11-12T08:39:51.043Z,5.50
2022-11-12T08:41:13.345Z,5.50
2022-11-12T08:42:33.573Z,5.60
2022-11-12T08:43:53.608Z,5.50
2022-11-12T08:45:14.165Z,5.60
2022-11-12T08:46:34.073Z,5.70
2022-11-12T08:47:58.901Z,5.80
2022-11-12T08:49:18.637Z,5.80
2022-11-12T08:50:38.514Z,5.80
2022-11-12T08:51:58.525Z,5.80
2022-11-12T08:53:18.394Z,5.90
2022-11-12T08:54:38.244Z,5.80
2022-11-12T08:55:58.692Z,5.70
2022-11-12T08:57:19.102Z,5.70
2022-11-12T08:58:39.073Z,5.70
2022-11-12T08:59:59.381Z,5.60
2022-11-12T09:01:19.536Z,5.50
2022-11-12T09:02:39.958Z,5.40
2022-11-12T09:03:59.789Z,5.40
2022-11-12T09:05:19.753Z,5.60
2022-11-12T09:06:40.131Z,5.60
2022-11-12T09:08:05.036Z,5.70
2022-11-12T09:09:24.867Z,5.60
2022-11-12T09:10:45.060Z,5.50
2022-11-12T09:12:15.029Z,5.60
2022-11-12T09:13:38.024Z,5.50
2022-11-12T09:15:09.657Z,5.50
2022-11-12T09:16:38.344Z,5.40
2022-11-12T09:18:00.601Z,5.20
2022-11-12T09:19:20.386Z,5.20
2022-11-12T09:20:40.269Z,5.20
2022-11-12T09:22:00.361Z,5.30
2022-11-12T09:23:20.439Z,5.20
2022-11-12T09:24:40.645Z,5.30
2022-11-12T09:26:01.478Z,5.30
2022-11-12T09:27:21.834Z,5.40
2022-11-12T09:28:41.559Z,5.50
2022-11-12T09:30:01.411Z,5.60
2022-11-12T09:31:21.227Z,5.70
2022-11-12T09:32:41.057Z,5.60
2022-11-12T09:34:00.923Z,5.70
2022-11-12T09:35:20.798Z,5.80
2022-11-12T09:36:40.784Z,5.90
2022-11-12T09:38:00.627Z,6.00
2022-11-12T09:39:20.493Z,6.00
2022-11-12T09:40:56.918Z,5.90
2022-11-12T09:42:20.677Z,5.90
2022-11-12T09:44:04.945Z,6.00
2022-11-12T09:45:31.320Z,6.30
2022-11-12T09:47:09.549Z,6.60
2022-11-12T09:48:53.312Z,6.70
2022-11-12T09:50:20.263Z,6.90
2022-11-12T09:52:00.435Z,6.90
2022-11-12T09:53:28.249Z,6.70
2022-11-12T09:54:58.240Z,6.50
2022-11-12T09:56:21.739Z,6.40
2022-11-12T09:57:42.114Z,6.40
2022-11-12T09:59:02.400Z,6.30
2022-11-12T10:00:22.544Z,6.20
2022-11-12T10:01:56.838Z,6.20
2022-11-12T10:03:46.042Z,6.40
2022-11-12T10:05:39.462Z,6.50
2022-11-12T10:07:09.852Z,6.70
2022-11-12T10:09:00.511Z,6.60
2022-11-12T10:10:35.787Z,6.60
2022-11-12T10:12:24.157Z,6.60
2022-11-12T10:14:22.895Z,6.50
2022-11-12T10:16:21.965Z,6.30
2022-11-12T10:18:10.776Z,6.30
2022-11-12T10:19:36.199Z,6.40
2022-11-12T10:21:04.741Z,6.30
2022-11-12T10:22:41.150Z,6.40
2022-11-12T10:24:01.436Z,6.40
2022-11-12T10:25:21.362Z,6.40
2022-11-12T10:26:41.687Z,6.40
2022-11-12T10:28:08.852Z,6.50
2022-11-12T10:29:38.881Z,6.50
2022-11-12T10:31:13.612Z,6.60
2022-11-12T10:32:37.073Z,6.60
2022-11-12T10:34:14.572Z,6.70
2022-11-12T10:35:36.854Z,6.60
2022-11-12T10:37:02.671Z,6.60
2022-11-12T10:38:27.971Z,6.70
2022-11-12T10:39:48.558Z,6.60
2022-11-12T10:41:23.020Z,6.80
2022-11-12T10:42:59.812Z,6.90
2022-11-12T10:44:26.700Z,7.00
2022-11-12T10:45:48.977Z,7.10
2022-11-12T10:47:43.032Z,6.90
2022-11-12T10:49:15.131Z,7.10
2022-11-12T10:50:39.588Z,7.10
2022-11-12T10:51:59.748Z,7.10
2022-11-12T10:53:35.744Z,7.10
2022-11-12T10:55:21.847Z,7.20
2022-11-12T10:56:41.787Z,7.30
2022-11-12T10:58:16.691Z,7.30
2022-11-12T10:59:36.760Z,7.30
2022-11-12T11:00:58.006Z,7.30
2022-11-12T11:02:19.170Z,7.40
2022-11-12T11:03:50.517Z,7.50
2022-11-12T11:05:48.626Z,7.70
2022-11-12T11:07:24.446Z,7.90
2022-11-12T11:08:50.526Z,8.10
2022-11-12T11:10:35.895Z,8.10
2022-11-12T11:11:55.926Z,8.00
2022-11-12T11:13:27.377Z,8.10
2022-11-12T11:14:47.283Z,8.10
2022-11-12T11:16:12.221Z,7.90
2022-11-12T11:17:32.174Z,7.80
2022-11-12T11:19:05.300Z,7.80
2022-11-12T11:20:34.377Z,7.80
2022-11-12T11:22:08.096Z,7.60
2022-11-12T11:23:39.854Z,7.50
2022-11-12T11:25:20.564Z,7.50
2022-11-12T11:27:21.698Z,7.50
2022-11-12T11:28:52.848Z,7.50
2022-11-12T11:30:18.029Z,7.50
2022-11-12T11:31:49.253Z,7.40
2022-11-12T11:33:41.696Z,7.40
2022-11-12T11:35:07.613Z,7.40
2022-11-12T11:36:41.612Z,7.50
2022-11-12T11:38:34.736Z,7.50
2022-11-12T11:40:12.807Z,7.50
2022-11-12T11:41:54.814Z,7.70
2022-11-12T11:43:26.070Z,7.60
2022-11-12T11:44:58.122Z,7.50
2022-11-12T11:46:36.316Z,7.40
2022-11-12T11:48:18.007Z,7.40
2022-11-12T11:50:06.459Z,7.40
2022-11-12T11:51:37.924Z,7.50
2022-11-12T11:53:19.788Z,7.50
2022-11-12T11:54:49.074Z,7.50
2022-11-12T11:56:24.412Z,7.50
2022-11-12T11:58:26.486Z,7.60
2022-11-12T12:00:20.969Z,7.60
2022-11-12T12:02:12.305Z,7.60
2022-11-12T12:03:45.229Z,7.70
2022-11-12T12:05:27.289Z,7.70
2022-11-12T12:07:26.023Z,7.70
2022-11-12T12:09:04.405Z,7.80
2022-11-12T12:10:53.382Z,7.90
2022-11-12T12:12:10.831Z,8.00
2022-11-12T12:13:33.520Z,8.00
2022-11-12T12:15:25.781Z,8.00
2022-11-12T12:17:09.887Z,8.10
2022-11-12T12:18:38.905Z,8.10
2022-11-12T12:20:13.644Z,8.10
2022-11-12T12:21:36.464Z,8.00
2022-11-12T12:23:20.495Z,8.00
2022-11-12T12:24:51.678Z,7.90
2022-11-12T12:26:16.692Z,7.90
2022-11-12T12:27:45.380Z,8.00
2022-11-12T12:29:26.646Z,8.10
2022-11-12T12:30:51.919Z,8.10
2022-11-12T12:32:24.615Z,8.20
2022-11-12T12:34:19.096Z,8.30
2022-11-12T12:35:52.817Z,8.30
2022-11-12T12:37:37.618Z,8.10
2022-11-12T12:39:23.427Z,8.20
2022-11-12T12:41:04.462Z,8.00
2022-11-12T12:42:36.745Z,8.00
2022-11-12T12:43:59.323Z,8.10
2022-11-12T12:45:36.170Z,8.00
2022-11-12T12:47:00.882Z,8.00
2022-11-12T12:48:38.201Z,8.10
2022-11-12T12:50:00.141Z,8.10
2022-11-12T12:51:21.729Z,8.10
2022-11-12T12:53:16.331Z,8.00
2022-11-12T12:54:36.041Z,8.00
2022-11-12T12:56:20.332Z,8.00
2022-11-12T12:57:41.121Z,8.00
2022-11-12T12:59:08.148Z,8.10
2022-11-12T13:00:35.792Z,8.20
2022-11-12T13:02:01.224Z,8.30
2022-11-12T13:03:46.008Z,8.20
2022-11-12T13:05:07.085Z,8.30
2022-11-12T13:06:39.567Z,8.40
2022-11-12T13:08:10.674Z,8.30
2022-11-12T13:09:32.482Z,8.30
2022-11-12T13:10:52.960Z,8.10
2022-11-12T13:12:17.856Z,8.10
2022-11-12T13:13:40.415Z,8.10
2022-11-12T13:15:14.688Z,8.00
2022-11-12T13:17:06.991Z,7.90
2022-11-12T13:18:42.003Z,7.90
2022-11-12T13:20:25.109Z,7.90
2022-11-12T13:21:44.971Z,7.90
2022-11-12T13:23:10.486Z,7.90
2022-11-12T13:25:01.025Z,7.90
2022-11-12T13:26:39.714Z,7.80
2022-11-12T13:28:10.572Z,7.80
2022-11-12T13:29:30.606Z,7.80
2022-11-12T13:30:51.250Z,7.80
2022-11-12T13:32:32.441Z,7.70
2022-11-12T13:33:53.972Z,7.60
2022-11-12T13:35:22.183Z,7.50
2022-11-12T13:37:05.836Z,7.60
2022-11-12T13:38:26.329Z,7.60
2022-11-12T13:39:46.988Z,7.60
2022-11-12T13:41:41.363Z,7.60
2022-11-12T13:43:11.228Z,7.50
2022-11-12T13:44:31.763Z,7.50
2022-11-12T13:46:03.212Z,7.50
2022-11-12T13:47:24.715Z,7.60
2022-11-12T13:48:47.974Z,7.50
2022-11-12T13:50:13.350Z,7.50
2022-11-12T13:51:46.571Z,7.60
2022-11-12T13:53:14.854Z,7.50
2022-11-12T13:54:37.884Z,7.50
2022-11-12T13:55:58.116Z,7.50
2022-11-12T13:57:23.229Z,7.60
2022-11-12T13:58:44.063Z,7.60
2022-11-12T14:00:17.262Z,7.70
2022-11-12T14:01:37.239Z,7.70
2022-11-12T14:03:07.974Z,7.80
2022-11-12T14:04:28.244Z,7.80
2022-11-12T14:05:50.220Z,7.70
2022-11-12T14:07:40.466Z,7.80
2022-11-12T14:09:00.451Z,7.60
2022-11-12T14:10:46.261Z,7.60
2022-11-12T14:12:15.821Z,7.60
2022-11-12T14:14:01.579Z,7.80
2022-11-12T14:15:28.901Z,7.80
2022-11-12T14:17:07.867Z,7.90
2022-11-12T14:18:42.625Z,7.80
2022-11-12T14:20:17.344Z,7.70
2022-11-12T14:21:37.084Z,7.60
2022-11-12T14:23:03.936Z,7.60
2022-11-12T14:24:24.562Z,7.60
2022-11-12T14:25:55.464Z,7.60
2022-11-12T14:27:35.385Z,7.60
2022-11-12T14:28:59.201Z,7.60
2022-11-12T14:30:23.910Z,7.60
2022-11-12T14:31:44.586Z,7.70
2022-11-12T14:33:11.029Z,7.70
2022-11-12T14:34:33.324Z,7.70
2022-11-12T14:35:55.087Z,7.70
2022-11-12T14:37:43.031Z,7.70
2022-11-12T14:39:04.042Z,7.60
2022-11-12T14:40:26.796Z,7.50
2022-11-12T14:41:49.209Z,7.50
2022-11-12T14:43:38.060Z,7.50
2022-11-12T14:44:59.593Z,7.50
2022-11-12T14:46:24.477Z,7.60
2022-11-12T14:47:49.841Z,7.60
2022-11-12T14:49:44.751Z,7.60
2022-11-12T14:51:11.374Z,7.60
2022-11-12T14:52:38.512Z,7.50
2022-11-12T14:54:09.580Z,7.50
2022-11-12T14:55:35.772Z,7.50
2022-11-12T14:56:59.904Z,7.50
2022-11-12T14:58:22.901Z,7.50
2022-11-12T14:59:43.196Z,7.50
2022-11-12T15:03:20.639Z,7.50
2022-11-12T15:04:58.717Z,7.40
2022-11-12T15:06:30.240Z,7.50
2022-11-12T15:07:55.941Z,7.50
2022-11-12T15:09:31.096Z,7.60
2022-11-12T15:10:51.714Z,7.60
2022-11-12T15:12:19.910Z,7.50
2022-11-12T15:13:42.575Z,7.50
2022-11-12T15:15:17.376Z,7.50
2022-11-12T15:16:42.329Z,7.60
2022-11-12T15:18:06.330Z,7.70
2022-11-12T15:19:27.829Z,7.70
2022-11-12T15:21:07.763Z,7.70
2022-11-12T15:22:27.993Z,7.70
2022-11-12T15:23:53.013Z,7.80
2022-11-12T15:25:25.087Z,7.70
2022-11-12T15:26:48.001Z,7.70
2022-11-12T15:28:24.691Z,7.70
2022-11-12T15:29:44.810Z,7.60
2022-11-12T15:31:18.676Z,7.50
2022-11-12T15:32:38.737Z,7.50
2022-11-12T15:34:27.755Z,7.50
2022-11-12T15:35:56.637Z,7.30
2022-11-12T15:37:19.414Z,7.20
2022-11-12T15:38:39.541Z,7.20
2022-11-12T15:40:04.291Z,7.20
2022-11-12T15:41:27.916Z,7.30
2022-11-12T15:42:48.432Z,7.30
2022-11-12T15:44:12.146Z,7.40
2022-11-12T15:45:32.312Z,7.50
2022-11-12T15:46:53.459Z,7.40
2022-11-12T15:48:13.451Z,7.30
2022-11-12T15:49:34.554Z,7.20
2022-11-12T15:50:55.440Z,7.30
2022-11-12T15:52:15.498Z,7.30
2022-11-12T15:53:35.268Z,7.30
2022-11-12T15:54:55.013Z,7.40
2022-11-12T15:56:19.242Z,7.40
2022-11-12T15:57:43.141Z,7.40
2022-11-12T15:59:03.918Z,7.50
2022-11-12T16:00:26.772Z,7.50
2022-11-12T16:01:46.964Z,7.50
2022-11-12T16:03:18.777Z,7.50
2022-11-12T16:04:38.653Z,7.50
2022-11-12T16:06:03.970Z,7.50
2022-11-12T16:07:27.303Z,7.60
2022-11-12T16:08:47.306Z,7.60
2022-11-12T16:10:08.047Z,7.60
2022-11-12T16:11:37.722Z,7.60
2022-11-12T16:13:00.464Z,7.50
2022-11-12T16:14:24.607Z,7.50
2022-11-12T16:15:45.138Z,7.40
2022-11-12T16:17:14.069Z,7.40
2022-11-12T16:18:34.161Z,7.30
2022-11-12T16:19:53.937Z,7.40
2022-11-12T16:21:18.071Z,7.40
2022-11-12T16:22:40.474Z,7.30
2022-11-12T16:24:00.263Z,7.30
2022-11-12T16:25:21.197Z,7.40
2022-11-12T16:26:41.465Z,7.30
2022-11-12T16:28:02.358Z,7.30
2022-11-12T16:29:22.414Z,7.20
2022-11-12T16:30:43.395Z,7.20
2022-11-12T16:32:04.546Z,7.20
2022-11-12T16:33:25.041Z,7.20
2022-11-12T16:34:45.180Z,7.20
2022-11-12T16:36:13.898Z,7.20
2022-11-12T16:37:34.015Z,7.10
2022-11-12T16:38:54.303Z,7.10
2022-11-12T16:40:17.774Z,7.10
2022-11-12T16:41:37.642Z,7.10
2022-11-12T16:42:58.111Z,7.10
2022-11-12T16:44:17.922Z,7.20
2022-11-12T16:45:43.182Z,7.20
2022-11-12T16:47:04.644Z,7.10
2022-11-12T16:48:24.540Z,7.10
2022-11-12T16:49:44.443Z,7.10
2022-11-12T16:51:04.508Z,7.00
2022-11-12T16:52:24.447Z,7.20
2022-11-12T16:53:44.696Z,7.20
2022-11-12T16:55:05.267Z,7.20
2022-11-12T16:56:25.466Z,7.10
2022-11-12T16:57:45.829Z,7.00
2022-11-12T16:59:06.238Z,7.10
2022-11-12T17:00:28.043Z,7.10
2022-11-12T17:01:47.864Z,7.10
2022-11-12T17:03:08.478Z,7.10
2022-11-12T17:04:29.069Z,7.10
2022-11-12T17:05:52.637Z,7.10
2022-11-12T17:07:12.872Z,7.10
2022-11-12T17:08:34.209Z,7.10
2022-11-12T17:09:54.747Z,7.00
2022-11-12T17:11:16.046Z,7.00
2022-11-12T17:12:35.937Z,7.00
2022-11-12T17:13:55.985Z,7.00
2022-11-12T17:15:16.340Z,6.90
2022-11-12T17:16:36.519Z,7.00
2022-11-12T17:17:56.790Z,7.10
2022-11-12T17:19:17.447Z,7.10
2022-11-12T17:20:37.574Z,7.10
2022-11-12T17:21:57.501Z,7.20
2022-11-12T17:23:17.312Z,7.20
2022-11-12T17:24:38.691Z,7.20
2022-11-12T17:26:03.234Z,7.30
2022-11-12T17:27:23.456Z,7.40
2022-11-12T17:28:43.583Z,7.40
2022-11-12T17:30:05.121Z,7.40
2022-11-12T17:31:25.301Z,7.40
2022-11-12T17:32:45.132Z,7.50
2022-11-12T17:34:06.898Z,7.50
2022-11-12T17:35:27.096Z,7.50
2022-11-12T17:36:47.027Z,7.50
2022-11-12T17:38:06.940Z,7.60
2022-11-12T17:39:26.956Z,7.50
2022-11-12T17:40:46.748Z,7.60
2022-11-12T17:42:07.050Z,7.60
2022-11-12T17:43:27.453Z,7.60
2022-11-12T17:44:47.617Z,7.50
2022-11-12T17:46:09.273Z,7.50
2022-11-12T17:47:29.840Z,7.60
2022-11-12T17:48:50.085Z,7.60
2022-11-12T17:50:10.444Z,7.60
2022-11-12T17:51:30.293Z,7.60
2022-11-12T17:52:50.050Z,7.60
2022-11-12T17:54:10.117Z,7.70
2022-11-12T17:55:30.335Z,7.70
2022-11-12T17:56:50.306Z,7.70
2022-11-12T17:58:10.180Z,7.60
2022-11-12T17:59:30.328Z,7.60
2022-11-12T18:00:51.748Z,7.60
2022-11-12T18:02:12.460Z,7.60
2022-11-12T18:03:32.622Z,7.60
2022-11-12T18:04:52.770Z,7.40
2022-11-12T18:06:15.364Z,7.30
2022-11-12T18:07:35.288Z,7.30
2022-11-12T18:09:01.238Z,7.30
2022-11-12T18:10:22.061Z,7.30
2022-11-12T18:11:54.648Z,7.30
2022-11-12T18:13:14.896Z,7.40
2022-11-12T18:14:35.049Z,7.40
2022-11-12T18:15:55.053Z,7.40
2022-11-12T18:17:15.040Z,7.40
2022-11-12T18:18:34.825Z,7.40
2022-11-12T18:19:55.176Z,7.40
2022-11-12T18:21:17.313Z,7.50
2022-11-12T18:22:42.145Z,7.50
2022-11-12T18:24:06.159Z,7.50
2022-11-12T18:25:25.950Z,7.50
2022-11-12T18:26:45.864Z,7.50
2022-11-12T18:28:07.711Z,7.50
2022-11-12T18:29:27.687Z,7.50
2022-11-12T18:30:47.679Z,7.50
2022-11-12T18:32:08.838Z,7.50
2022-11-12T18:33:30.027Z,7.50
2022-11-12T18:34:51.970Z,7.60
2022-11-12T18:36:14.910Z,7.60
2022-11-12T18:37:34.952Z,7.50
2022-11-12T18:38:55.941Z,7.50
2022-11-12T18:40:22.437Z,7.60
2022-11-12T18:41:43.419Z,7.70
2022-11-12T18:43:03.862Z,7.70
2022-11-12T18:44:26.271Z,7.60
2022-11-12T18:45:54.476Z,7.60
2022-11-12T18:47:18.129Z,7.60
2022-11-12T18:48:40.448Z,7.60
2022-11-12T18:50:05.505Z,7.70
2022-11-12T18:51:29.509Z,7.60
2022-11-12T18:52:50.130Z,7.60